Time;durP1;ratioP1;P1;durP2;ratioP2;P2;SDS_P1;SDS_P2;PMS_P1;PMS_P2;Temp;Humidity;BMP_temperature;BMP_pressure;BME280_temperature;BME280_humidity;BME280_pressure;Samples;Min_cycle;Max_cycle;Signal;HPM_P1;HPM_P2
2023/09/09 00:02:16;;;;;;;7.40;3.72;;;19.70;99.90;;;;;;4863192;29;20509;-69
2023/09/09 00:04:44;;;;;;;8.95;4.47;;;19.50;99.90;;;;;;4821645;29;20576;-68
2023/09/09 00:07:16;;;;;;;8.50;3.88;;;19.50;99.90;;;;;;4822185;29;20045;-68
2023/09/09 00:09:43;;;;;;;5.88;3.63;;;19.50;99.90;;;;;;4821931;29;20091;-68
2023/09/09 00:12:09;;;;;;;7.10;3.90;;;19.50;99.90;;;;;;4822059;29;20129;-69
2023/09/09 00:14:40;;;;;;;7.70;4.25;;;19.70;99.90;;;;;;4806695;29;20137;-69
2023/09/09 00:17:15;;;;;;;8.07;4.18;;;19.60;99.90;;;;;;4807042;29;20098;-69
2023/09/09 00:19:40;;;;;;;7.85;4.00;;;19.20;99.90;;;;;;4821883;29;20034;-69
2023/09/09 00:22:18;;;;;;;7.50;3.83;;;19.10;99.90;;;;;;4806836;29;20557;-69
2023/09/09 00:24:44;;;;;;;8.95;3.80;;;19.00;99.90;;;;;;4822208;29;20042;-70
2023/09/09 00:27:20;;;;;;;7.80;3.65;;;19.10;99.90;;;;;;4821930;29;20047;-69
2023/09/09 00:29:46;;;;;;;6.10;3.15;;;18.90;99.90;;;;;;4806511;29;20172;-69
2023/09/09 00:32:30;;;;;;;7.05;3.30;;;19.00;99.90;;;;;;4821693;29;20489;-69
2023/09/09 00:34:58;;;;;;;13.13;4.80;;;19.20;99.90;;;;;;4791644;29;20083;-69
2023/09/09 00:37:25;;;;;;;14.57;5.07;;;19.30;99.90;;;;;;4806930;29;20123;-70
2023/09/09 00:39:57;;;;;;;11.00;4.80;;;19.40;99.90;;;;;;4809498;29;20049;-69
2023/09/09 00:42:22;;;;;;;9.43;4.47;;;19.50;99.90;;;;;;4879593;29;20032;-69
2023/09/09 00:44:54;;;;;;;8.77;4.22;;;19.60;99.90;;;;;;4879315;29;20037;-69
2023/09/09 00:47:26;;;;;;;6.03;3.78;;;19.70;99.90;;;;;;4879249;29;20045;-69
2023/09/09 00:50:03;;;;;;;13.07;4.38;;;19.70;99.90;;;;;;4862126;29;20064;-69
2023/09/09 00:52:38;;;;;;;7.07;3.63;;;19.30;99.90;;;;;;4878988;29;20447;-69
2023/09/09 00:55:09;;;;;;;7.25;3.80;;;19.30;99.90;;;;;;4878854;29;20037;-69
2023/09/09 00:57:35;;;;;;;7.03;4.57;;;19.30;99.90;;;;;;4878758;29;20115;-69
2023/09/09 01:00:11;;;;;;;9.15;3.85;;;19.20;99.90;;;;;;4878489;29;20120;-69
2023/09/09 01:02:40;;;;;;;7.10;4.22;;;19.20;99.90;;;;;;4878638;29;20057;-69
2023/09/09 01:05:15;;;;;;;6.85;4.05;;;19.10;99.90;;;;;;4858280;29;20025;-69
2023/09/09 01:07:48;;;;;;;7.00;4.50;;;19.00;99.90;;;;;;4875963;29;20032;-70
2023/09/09 01:10:17;;;;;;;5.88;3.47;;;18.90;99.90;;;;;;4861171;29;20033;-69
2023/09/09 01:15:58;;;;;;;12.02;4.82;;;18.90;99.90;;;;;;4815945;29;20053;-69
2023/09/09 01:18:28;;;;;;;7.95;3.72;;;19.00;99.90;;;;;;4841141;29;20042;-69
2023/09/09 01:21:10;;;;;;;7.68;4.82;;;19.20;99.90;;;;;;4861493;29;20498;-69
2023/09/09 01:23:42;;;;;;;10.95;4.00;;;19.20;99.90;;;;;;4861934;29;20052;-69
2023/09/09 01:26:17;;;;;;;9.20;5.28;;;19.30;99.90;;;;;;4861460;29;20102;-69
2023/09/09 01:28:52;;;;;;;7.90;4.03;;;19.40;99.90;;;;;;4878142;29;20037;-69
2023/09/09 01:31:21;;;;;;;7.20;4.20;;;19.30;99.90;;;;;;4877583;29;20040;-69
2023/09/09 01:33:55;;;;;;;8.73;4.20;;;19.00;99.90;;;;;;4861559;29;20108;-69
2023/09/09 01:36:47;;;;;;;7.45;3.90;;;18.60;99.90;;;;;;4878121;29;20055;-69
2023/09/09 01:39:16;;;;;;;7.85;3.95;;;18.50;99.90;;;;;;4869202;29;20025;-69
2023/09/09 01:45:35;;;;;;;7.03;3.85;;;18.60;99.90;;;;;;4816046;29;20053;-70
2023/09/09 01:48:23;;;;;;;7.18;3.80;;;18.60;99.90;;;;;;4876802;29;20040;-70
2023/09/09 01:50:51;;;;;;;8.18;3.45;;;18.60;99.90;;;;;;4856491;29;20033;-70
2023/09/09 01:53:23;;;;;;;5.82;3.63;;;18.70;99.90;;;;;;4877984;29;20041;-70
2023/09/09 01:58:43;;;;;;;7.38;3.45;;;18.60;99.90;;;;;;4873014;29;20514;-70
2023/09/09 02:01:18;;;;;;;6.00;3.63;;;18.80;99.90;;;;;;4877390;29;20065;-70
2023/09/09 02:03:44;;;;;;;11.95;4.05;;;18.80;99.90;;;;;;4860980;29;20025;-70
2023/09/09 02:06:17;;;;;;;9.00;4.10;;;18.80;99.90;;;;;;4860687;29;20455;-70
2023/09/09 02:08:52;;;;;;;10.90;4.47;;;18.90;99.90;;;;;;4877792;29;20112;-70
2023/09/09 02:11:26;;;;;;;8.07;4.00;;;18.70;99.90;;;;;;4877954;29;20044;-70
2023/09/09 02:14:01;;;;;;;13.25;4.03;;;18.70;99.90;;;;;;4861091;29;20097;-70
2023/09/09 02:16:36;;;;;;;8.55;3.97;;;18.50;99.90;;;;;;4861124;29;20104;-68
2023/09/09 02:19:20;;;;;;;9.82;3.95;;;18.40;99.90;;;;;;4877961;29;20037;-68
2023/09/09 02:21:52;;;;;;;6.47;3.47;;;18.30;99.90;;;;;;4861057;29;20056;-69
2023/09/09 02:25:29;;;;;;;9.95;4.75;;;18.40;99.90;;;;;;4877674;29;20040;-69
2023/09/09 02:27:54;;;;;;;13.75;3.80;;;18.30;99.90;;;;;;4794848;29;20042;-69
2023/09/09 02:30:52;;;;;;;7.40;3.85;;;18.30;99.90;;;;;;4786861;29;20045;-69
2023/09/09 02:33:18;;;;;;;5.93;3.10;;;18.10;99.90;;;;;;4786497;29;20073;-69
2023/09/09 02:35:49;;;;;;;7.03;3.25;;;17.90;99.90;;;;;;4802047;29;20469;-69
2023/09/09 02:38:26;;;;;;;8.55;3.80;;;17.80;99.90;;;;;;4828157;29;20052;-69
2023/09/09 02:41:04;;;;;;;8.73;4.15;;;17.90;99.90;;;;;;4860959;29;20067;-69
2023/09/09 02:43:33;;;;;;;7.05;4.18;;;17.90;99.90;;;;;;4860954;29;20086;-70
2023/09/09 02:46:05;;;;;;;9.25;4.78;;;17.80;99.90;;;;;;4877726;29;20036;-70
2023/09/09 02:49:49;;;;;;;15.10;5.13;;;18.00;99.90;;;;;;4877635;29;20033;-69
2023/09/09 02:52:15;;;;;;;10.45;5.10;;;18.10;99.90;;;;;;4737024;29;20036;-70
2023/09/09 02:54:47;;;;;;;9.45;5.40;;;18.20;99.90;;;;;;4801814;29;20061;-68
2023/09/09 02:57:30;;;;;;;19.02;7.30;;;18.30;99.90;;;;;;4801509;29;20129;-68
2023/09/09 02:59:56;;;;;;;9.40;5.50;;;18.30;99.90;;;;;;4792880;29;20035;-69
2023/09/09 03:02:42;;;;;;;14.32;5.95;;;18.30;99.90;;;;;;4799728;29;20504;-69
2023/09/09 03:05:14;;;;;;;18.70;6.25;;;18.30;99.90;;;;;;4799843;29;20117;-69
2023/09/09 03:07:46;;;;;;;10.48;5.53;;;18.40;99.90;;;;;;4801095;29;20125;-69
2023/09/09 03:10:18;;;;;;;11.52;6.00;;;18.40;99.90;;;;;;4787920;29;20043;-69
2023/09/09 03:13:02;;;;;;;11.13;6.25;;;18.30;99.90;;;;;;4786062;29;20057;-69
2023/09/09 03:15:28;;;;;;;13.35;5.22;;;18.30;99.90;;;;;;4793770;29;20114;-69
2023/09/09 03:18:03;;;;;;;10.18;5.15;;;18.20;99.90;;;;;;4785405;29;20126;-69
2023/09/09 03:20:53;;;;;;;10.05;5.93;;;18.20;99.90;;;;;;4771044;30;20118;-69
2023/09/09 03:23:19;;;;;;;7.30;4.35;;;18.00;99.90;;;;;;4852570;29;20041;-68
2023/09/09 03:25:44;;;;;;;10.40;4.80;;;18.00;99.90;;;;;;4871033;29;20039;-68
2023/09/09 03:28:23;;;;;;;10.45;5.38;;;18.10;99.90;;;;;;4865162;29;20037;-68
2023/09/09 03:31:05;;;;;;;17.40;6.88;;;18.00;99.90;;;;;;4879795;29;20097;-68
2023/09/09 03:33:31;;;;;;;9.13;4.93;;;18.00;99.90;;;;;;4871292;29;20041;-68
2023/09/09 03:36:00;;;;;;;9.02;5.20;;;17.90;99.90;;;;;;4879743;29;20077;-69
2023/09/09 03:38:31;;;;;;;10.77;5.50;;;17.80;99.90;;;;;;4879856;29;20286;-68
2023/09/09 03:40:57;;;;;;;9.13;5.25;;;17.70;99.90;;;;;;4879594;29;20534;-68
2023/09/09 03:43:29;;;;;;;8.23;4.95;;;17.80;99.90;;;;;;4863505;29;20132;-68
2023/09/09 03:46:06;;;;;;;11.07;5.32;;;17.80;99.90;;;;;;4879764;29;20033;-69
2023/09/09 03:48:47;;;;;;;11.02;5.88;;;17.70;99.90;;;;;;4879582;29;20378;-68
2023/09/09 03:51:13;;;;;;;11.65;5.55;;;17.70;99.90;;;;;;4865157;29;20043;-68
2023/09/09 03:53:38;;;;;;;8.07;4.88;;;17.70;99.90;;;;;;4879394;29;20041;-68
2023/09/09 03:56:17;;;;;;;8.57;4.75;;;17.60;99.90;;;;;;4879366;29;20116;-68
2023/09/09 03:59:10;;;;;;;9.95;5.47;;;17.40;99.90;;;;;;4879612;29;20112;-68
2023/09/09 04:01:36;;;;;;;10.27;5.20;;;17.50;99.90;;;;;;4868986;29;20032;-68
2023/09/09 04:04:02;;;;;;;9.43;5.28;;;17.60;99.90;;;;;;4879238;29;20029;-69
2023/09/09 04:06:28;;;;;;;14.40;5.55;;;17.80;99.90;;;;;;4879636;29;20093;-69
2023/09/09 04:08:58;;;;;;;10.15;5.75;;;17.80;99.90;;;;;;4866823;29;20474;-69
2023/09/09 04:11:42;;;;;;;12.00;6.03;;;17.90;99.90;;;;;;4862080;29;20442;-68
2023/09/09 04:14:51;;;;;;;9.25;5.28;;;17.90;99.90;;;;;;4879047;29;20445;-68
2023/09/09 04:17:16;;;;;;;12.65;5.70;;;17.90;99.90;;;;;;4803304;29;20039;-68
2023/09/09 04:19:57;;;;;;;8.98;5.43;;;17.80;99.90;;;;;;4802946;29;20049;-68
2023/09/09 04:22:23;;;;;;;10.00;5.55;;;17.90;99.90;;;;;;4803185;29;20200;-69
2023/09/09 04:24:49;;;;;;;12.77;5.30;;;17.90;99.90;;;;;;4803155;29;20132;-69
2023/09/09 04:27:14;;;;;;;10.30;5.47;;;18.00;99.90;;;;;;4802714;29;20110;-68
2023/09/09 04:29:41;;;;;;;7.50;4.57;;;18.00;99.90;;;;;;4803008;29;20151;-68
2023/09/09 04:32:06;;;;;;;10.73;5.50;;;18.00;99.90;;;;;;4803051;29;20092;-68
2023/09/09 04:34:32;;;;;;;9.60;4.88;;;17.90;99.90;;;;;;4802910;29;20070;-68
2023/09/09 04:37:10;;;;;;;8.23;4.78;;;17.80;99.90;;;;;;4803134;29;20404;-69
2023/09/09 04:39:57;;;;;;;8.18;4.65;;;17.50;99.90;;;;;;4802664;29;20041;-69
2023/09/09 04:42:23;;;;;;;10.45;5.22;;;17.30;99.90;;;;;;4802968;29;20424;-69
2023/09/09 04:45:44;;;;;;;9.40;5.28;;;17.20;99.90;;;;;;4792792;29;20444;-69
2023/09/09 04:48:13;;;;;;;11.40;5.50;;;17.10;99.90;;;;;;4802785;29;20107;-69
2023/09/09 04:51:01;;;;;;;8.48;4.90;;;17.00;99.90;;;;;;4802557;29;20491;-68
2023/09/09 04:53:42;;;;;;;11.05;5.53;;;17.00;99.90;;;;;;4810015;29;20037;-69
2023/09/09 04:56:14;;;;;;;;;;;17.00;99.90;;;;;;4878492;29;20045;-69
2023/09/09 04:58:49;;;;;;;10.27;4.70;;;16.90;99.90;;;;;;4867833;29;19918;-69
2023/09/09 05:01:21;;;;;;;9.18;5.53;;;16.80;99.90;;;;;;4878099;29;20506;-69
2023/09/09 05:03:47;;;;;;;9.45;5.70;;;16.60;99.90;;;;;;4878316;29;20032;-70
2023/09/09 05:06:19;;;;;;;8.02;4.45;;;16.70;99.90;;;;;;4878282;29;20394;-69
2023/09/09 05:08:46;;;;;;;9.18;4.82;;;16.70;99.90;;;;;;4878097;29;20514;-70
2023/09/09 05:11:12;;;;;;;9.48;5.60;;;16.80;99.90;;;;;;4877649;29;20485;-69
2023/09/09 05:13:37;;;;;;;8.68;4.38;;;16.70;99.90;;;;;;4867904;29;20033;-69
2023/09/09 05:16:36;;;;;;;11.38;5.57;;;16.70;99.90;;;;;;4877955;29;20029;-75
2023/09/09 05:19:13;;;;;;;9.48;5.07;;;16.70;99.90;;;;;;4878018;29;20876;-69
2023/09/09 05:21:48;;;;;;;11.82;6.15;;;16.70;99.90;;;;;;4877757;29;20379;-69
2023/09/09 05:24:15;;;;;;;11.13;4.63;;;16.70;99.90;;;;;;4877785;29;20029;-69
2023/09/09 05:26:49;;;;;;;9.90;5.72;;;16.60;99.90;;;;;;4867437;29;20025;-69
2023/09/09 05:29:33;;;;;;;11.23;5.03;;;16.60;99.90;;;;;;4877802;29;20498;-69
2023/09/09 05:31:59;;;;;;;7.75;4.50;;;16.60;99.90;;;;;;4877630;29;20045;-69
2023/09/09 05:34:24;;;;;;;10.30;5.03;;;16.50;99.90;;;;;;4866360;29;20040;-69
2023/09/09 05:37:51;;;;;;;14.43;5.28;;;16.60;99.90;;;;;;4877923;29;20398;-69
2023/09/09 05:40:22;;;;;;;9.05;5.38;;;16.70;99.90;;;;;;4876653;29;20054;-69
2023/09/09 05:42:48;;;;;;;8.90;5.30;;;16.80;99.90;;;;;;4866169;29;20040;-69
2023/09/09 05:45:14;;;;;;;10.70;5.90;;;16.90;99.90;;;;;;4877619;29;20033;-69
2023/09/09 05:47:42;;;;;;;9.82;5.35;;;17.00;99.90;;;;;;4877682;29;20031;-69
2023/09/09 05:50:08;;;;;;;10.25;5.55;;;17.00;99.90;;;;;;4863558;29;20057;-69
2023/09/09 05:53:09;;;;;;;15.63;5.22;;;17.10;99.90;;;;;;4868746;29;20040;-69
2023/09/09 05:55:37;;;;;;;12.45;5.30;;;17.20;99.90;;;;;;4842423;29;20455;-70
2023/09/09 05:58:41;;;;;;;11.30;6.05;;;17.30;99.90;;;;;;4877576;29;20029;-70
2023/09/09 06:01:07;;;;;;;9.85;5.95;;;17.50;99.90;;;;;;4854392;29;20044;-70
2023/09/09 06:03:39;;;;;;;10.75;5.93;;;17.60;99.90;;;;;;4877763;29;20036;-70
2023/09/09 06:06:05;;;;;;;7.95;5.00;;;17.70;99.90;;;;;;4877400;29;20025;-70
2023/09/09 06:08:31;;;;;;;11.57;5.30;;;17.80;99.90;;;;;;4860740;29;20077;-70
2023/09/09 06:11:29;;;;;;;10.75;5.22;;;17.90;99.90;;;;;;4857262;29;20036;-70
2023/09/09 06:14:04;;;;;;;9.38;4.95;;;18.00;99.90;;;;;;4825251;29;20147;-70
2023/09/09 06:16:39;;;;;;;13.75;5.88;;;18.10;99.90;;;;;;4877494;29;20107;-70
2023/09/09 06:19:10;;;;;;;9.63;5.10;;;18.20;99.90;;;;;;4877424;29;20566;-70
2023/09/09 06:22:26;;;;;;;11.43;5.10;;;18.40;99.90;;;;;;4876931;29;20037;-70
2023/09/09 06:24:58;;;;;;;10.98;5.65;;;18.30;99.90;;;;;;4877408;29;20426;-70
2023/09/09 06:27:23;;;;;;;34.92;7.70;;;18.50;99.90;;;;;;4877358;29;20250;-69
2023/09/09 06:29:49;;;;;;;15.13;5.25;;;18.60;99.90;;;;;;4876899;29;20566;-69
2023/09/09 06:32:47;;;;;;;11.10;5.85;;;18.60;99.90;;;;;;4877025;29;20033;-69
2023/09/09 06:35:19;;;;;;;11.40;5.43;;;18.70;99.90;;;;;;4862235;29;20060;-70
2023/09/09 06:37:44;;;;;;;11.05;5.72;;;18.70;99.90;;;;;;4860412;29;20164;-69
2023/09/09 06:40:11;;;;;;;12.23;5.15;;;18.70;99.90;;;;;;4876762;29;20084;-69
2023/09/09 06:42:39;;;;;;;13.80;6.22;;;18.80;99.90;;;;;;4877361;29;20041;-70
2023/09/09 06:45:11;;;;;;;11.75;5.97;;;18.90;99.90;;;;;;4860345;29;20037;-68
2023/09/09 06:47:49;;;;;;;9.20;5.18;;;18.90;99.90;;;;;;4877242;29;20033;-69
2023/09/09 06:50:26;;;;;;;9.05;5.25;;;19.00;99.90;;;;;;4876671;29;20089;-68
2023/09/09 06:52:55;;;;;;;8.68;5.05;;;19.00;99.90;;;;;;4880780;29;20041;-68
2023/09/09 06:55:30;;;;;;;19.85;5.55;;;19.00;99.90;;;;;;4880516;29;20498;-68
2023/09/09 06:57:55;;;;;;;9.73;5.10;;;19.20;99.90;;;;;;4880683;29;20029;-68
2023/09/09 07:00:34;;;;;;;16.38;5.85;;;19.20;99.90;;;;;;4880125;29;20033;-68
2023/09/09 07:03:15;;;;;;;10.60;5.72;;;19.30;99.90;;;;;;4863758;29;20433;-69
2023/09/09 07:05:40;;;;;;;;;;;19.40;99.90;;;;;;4880900;29;20040;-69
2023/09/09 07:08:12;;;;;;;9.63;5.35;;;19.50;99.90;;;;;;4880525;29;19911;-68
2023/09/09 07:10:38;;;;;;;13.23;5.28;;;19.50;99.90;;;;;;4880128;29;20048;-69
2023/09/09 07:13:28;;;;;;;9.73;5.28;;;19.60;99.90;;;;;;4880382;29;20107;-68
2023/09/09 07:16:00;;;;;;;9.32;5.50;;;19.70;99.90;;;;;;4880480;29;20033;-68
2023/09/09 07:18:49;;;;;;;10.88;5.28;;;19.80;99.90;;;;;;4880379;29;20033;-69
2023/09/09 07:21:43;;;;;;;9.73;5.43;;;19.70;99.90;;;;;;4803870;29;20054;-70
2023/09/09 07:24:09;;;;;;;9.20;5.47;;;19.80;99.90;;;;;;4787507;29;20211;-69
2023/09/09 07:26:38;;;;;;;8.68;5.47;;;19.90;99.90;;;;;;4804281;29;20043;-69
2023/09/09 07:29:04;;;;;;;10.23;5.45;;;19.80;99.90;;;;;;4811740;29;20030;-69
2023/09/09 07:31:30;;;;;;;7.38;4.57;;;19.90;99.90;;;;;;4796439;29;20030;-69
2023/09/09 07:34:01;;;;;;;11.75;5.80;;;20.10;99.90;;;;;;4789035;29;20450;-69
2023/09/09 07:36:27;;;;;;;10.27;4.57;;;20.10;99.90;;;;;;4804236;29;20432;-70
2023/09/09 07:39:03;;;;;;;8.25;4.30;;;20.00;99.90;;;;;;4789116;29;20046;-70
2023/09/09 07:41:29;;;;;;;9.88;4.70;;;20.10;99.90;;;;;;4803840;29;20599;-70
2023/09/09 07:44:03;;;;;;;8.82;4.80;;;20.30;99.90;;;;;;4789175;29;20129;-70
2023/09/09 07:46:38;;;;;;;10.27;5.55;;;20.50;99.90;;;;;;4803921;29;20053;-70
2023/09/09 07:49:04;;;;;;;11.07;5.38;;;20.50;99.90;;;;;;4804036;29;20535;-70
2023/09/09 07:51:29;;;;;;;14.25;5.50;;;20.60;99.90;;;;;;4803669;29;20054;-70
2023/09/09 07:53:58;;;;;;;9.10;5.45;;;20.70;99.90;;;;;;4803682;29;20087;-69
2023/09/09 07:56:24;;;;;;;12.05;4.70;;;20.90;99.90;;;;;;4803645;29;20403;-69
2023/09/09 07:58:50;;;;;;;10.93;4.57;;;20.90;99.90;;;;;;4859811;29;20045;-70
2023/09/09 08:01:25;;;;;;;9.00;5.35;;;21.00;99.90;;;;;;4879195;29;20554;-70
2023/09/09 08:03:51;;;;;;;8.75;4.57;;;21.00;99.90;;;;;;4878906;29;20397;-70
2023/09/09 08:06:16;;;;;;;11.40;6.07;;;21.10;99.90;;;;;;4870252;29;20029;-70
2023/09/09 08:08:42;;;;;;;9.20;4.90;;;21.20;99.90;;;;;;4879343;29;20112;-70
2023/09/09 08:11:11;;;;;;;13.35;4.82;;;21.20;99.90;;;;;;4878838;29;20040;-70
2023/09/09 08:13:37;;;;;;;14.40;5.72;;;21.30;99.90;;;;;;4879130;29;20117;-70
2023/09/09 08:16:09;;;;;;;9.30;5.60;;;21.40;99.90;;;;;;4847253;29;20756;-70
2023/09/09 08:18:35;;;;;;;9.77;4.93;;;21.60;99.90;;;;;;4880257;29;20033;-70
2023/09/09 08:21:00;;;;;;;9.90;4.90;;;21.60;99.90;;;;;;4880635;29;20393;-70
2023/09/09 08:23:50;;;;;;;10.15;5.32;;;21.70;99.90;;;;;;4880375;29;20037;-70
2023/09/09 08:26:25;;;;;;;13.57;5.68;;;21.80;99.90;;;;;;4790396;29;20053;-70
2023/09/09 08:28:50;;;;;;;11.98;5.97;;;21.90;99.90;;;;;;4804933;29;20104;-70
2023/09/09 08:31:22;;;;;;;9.50;5.00;;;22.10;99.90;;;;;;4803514;29;20050;-70
2023/09/09 08:34:12;;;;;;;9.68;5.60;;;22.20;99.90;;;;;;4788673;29;20035;-70
2023/09/09 08:36:41;;;;;;;10.75;4.95;;;22.30;99.90;;;;;;4803173;29;20062;-70
2023/09/09 08:39:07;;;;;;;11.48;5.05;;;22.40;99.90;;;;;;4803109;29;20601;-70
2023/09/09 08:42:38;;;;;;;10.27;5.43;;;22.50;99.90;;;;;;4802804;29;20183;-70
2023/09/09 08:46:04;;;;;;;10.13;4.90;;;22.60;99.90;;;;;;4803004;29;20112;-69
2023/09/09 08:52:27;;;;;;;12.00;6.28;;;22.90;99.90;;;;;;4741487;30;20052;-69
2023/09/09 08:54:59;;;;;;;12.55;5.90;;;23.00;99.90;;;;;;4696705;30;20091;-69
2023/09/09 08:57:28;;;;;;;12.23;5.78;;;23.20;99.90;;;;;;4729862;30;20565;-69
2023/09/09 09:00:04;;;;;;;11.35;5.20;;;23.10;99.90;;;;;;4702330;30;20087;-70
2023/09/09 09:02:33;;;;;;;13.98;7.72;;;23.20;99.90;;;;;;4726278;30;20063;-70
2023/09/09 09:05:06;;;;;;;11.82;6.15;;;23.40;99.90;;;;;;4784509;29;20039;-70
2023/09/09 09:07:46;;;;;;;13.43;6.20;;;23.60;99.90;;;;;;4777174;29;20118;-70
2023/09/09 09:10:14;;;;;;;12.60;6.18;;;23.80;99.90;;;;;;4751301;30;20488;-70
2023/09/09 09:12:46;;;;;;;16.17;7.05;;;23.50;99.90;;;;;;4780563;29;20420;-69
2023/09/09 09:15:16;;;;;;;13.95;6.78;;;23.60;99.90;;;;;;4769212;30;20412;-70
2023/09/09 09:17:53;;;;;;;13.45;6.90;;;23.60;99.90;;;;;;4784285;29;20398;-70
2023/09/09 09:20:30;;;;;;;15.52;7.50;;;23.80;99.90;;;;;;4871414;29;20041;-70
2023/09/09 09:23:42;;;;;;;17.00;8.63;;;24.00;99.90;;;;;;4877909;29;20040;-69
2023/09/09 09:26:36;;;;;;;16.20;7.75;;;24.20;99.90;;;;;;4878090;29;20037;-69
2023/09/09 09:29:11;;;;;;;11.70;7.10;;;24.40;99.90;;;;;;4878256;29;20024;-69
2023/09/09 09:32:47;;;;;;;13.38;7.15;;;24.50;99.90;;;;;;4877426;29;20096;-69
2023/09/09 09:35:48;;;;;;;19.02;8.45;;;24.50;99.90;;;;;;4877559;29;20041;-70
2023/09/09 09:38:19;;;;;;;;;;;24.50;99.90;;;;;;4799737;29;20041;-70
2023/09/09 09:40:48;;;;;;;16.17;7.82;;;24.80;99.90;;;;;;4860914;29;19959;-69
2023/09/09 09:43:21;;;;;;;14.32;7.57;;;25.00;99.90;;;;;;4861409;29;20029;-70
2023/09/09 09:46:34;;;;;;;15.80;8.02;;;25.30;99.90;;;;;;4861355;29;20033;-70
2023/09/09 09:50:28;;;;;;;13.25;7.22;;;25.00;99.90;;;;;;4862127;29;20045;-70
2023/09/09 09:53:08;;;;;;;12.13;6.90;;;25.30;99.90;;;;;;4730463;30;20086;-70
2023/09/09 09:55:56;;;;;;;10.43;5.45;;;25.40;99.90;;;;;;4730688;30;20044;-70
2023/09/09 09:58:37;;;;;;;17.23;6.85;;;25.50;99.90;;;;;;4715763;30;20037;-70
2023/09/09 10:01:05;;;;;;;19.98;8.27;;;25.60;99.90;;;;;;4717436;30;20041;-70
2023/09/09 10:04:04;;;;;;;15.73;8.15;;;25.70;99.90;;;;;;4781272;29;20453;-70
2023/09/09 10:06:51;;;;;;;14.70;6.88;;;25.90;99.90;;;;;;4788760;29;20042;-70
2023/09/09 10:09:40;;;;;;;12.50;6.80;;;26.10;99.90;;;;;;4786946;29;20393;-70
2023/09/09 10:12:41;;;;;;;13.02;7.00;;;26.50;99.90;;;;;;4801877;29;20043;-70
2023/09/09 10:15:08;;;;;;;14.38;6.72;;;26.70;99.90;;;;;;4794324;29;20057;-70
2023/09/09 10:17:41;;;;;;;14.13;6.97;;;26.70;99.90;;;;;;4801706;29;20404;-70
2023/09/09 10:20:11;;;;;;;15.55;7.55;;;27.00;99.90;;;;;;4784947;29;20586;-70
2023/09/09 10:22:41;;;;;;;15.65;7.95;;;26.90;99.90;;;;;;4770635;29;20046;-69
2023/09/09 10:25:10;;;;;;;13.45;6.40;;;27.00;99.90;;;;;;4786823;29;20035;-70
2023/09/09 10:27:39;;;;;;;15.35;7.65;;;27.00;99.90;;;;;;4810831;29;20056;-71
2023/09/09 10:30:17;;;;;;;14.10;7.18;;;27.00;99.90;;;;;;4871869;29;20116;-70
2023/09/09 10:32:49;;;;;;;9.82;6.15;;;27.00;99.90;;;;;;4858062;29;20036;-69
2023/09/09 10:35:23;;;;;;;14.52;7.68;;;27.30;99.90;;;;;;4863786;29;20052;-70
2023/09/09 10:37:55;;;;;;;11.77;7.55;;;27.60;99.90;;;;;;4849251;29;20033;-69
2023/09/09 10:40:36;;;;;;;15.95;8.38;;;26.80;99.90;;;;;;4864556;29;20029;-69
2023/09/09 10:43:08;;;;;;;12.98;7.18;;;27.30;99.90;;;;;;4865073;29;20132;-69
2023/09/09 10:45:42;;;;;;;12.88;6.65;;;27.50;99.90;;;;;;4849097;29;20037;-69
2023/09/09 10:48:21;;;;;;;17.55;7.00;;;28.00;99.90;;;;;;4880754;29;20029;-69
2023/09/09 10:53:37;;;;;;;13.93;6.85;;;28.10;99.90;;;;;;4859671;29;20050;-69
2023/09/09 10:57:02;;;;;;;10.65;6.00;;;28.30;99.90;;;;;;4859866;29;20053;-69
2023/09/09 10:59:32;;;;;;;12.68;6.80;;;28.50;99.90;;;;;;4809572;29;20419;-69
2023/09/09 11:02:23;;;;;;;13.15;7.45;;;28.70;99.90;;;;;;4843386;29;20038;-69
2023/09/09 11:05:17;;;;;;;14.57;6.47;;;28.80;98.80;;;;;;4859492;29;20105;-69
2023/09/09 11:07:51;;;;;;;13.68;7.35;;;29.30;99.00;;;;;;4867182;29;20045;-69
2023/09/09 11:10:17;;;;;;;12.90;6.93;;;29.50;98.00;;;;;;4859140;29;20040;-69
2023/09/09 11:13:02;;;;;;;12.60;6.38;;;29.30;97.90;;;;;;4859610;29;20046;-69
2023/09/09 11:15:28;;;;;;;12.15;7.00;;;29.60;97.50;;;;;;4859736;29;20076;-69
2023/09/09 11:17:59;;;;;;;11.48;5.68;;;29.40;96.60;;;;;;4859486;29;20067;-69
2023/09/09 11:20:31;;;;;;;15.23;7.00;;;29.00;98.50;;;;;;4844134;29;20029;-69
2023/09/09 11:22:58;;;;;;;12.55;5.70;;;29.10;96.60;;;;;;4859195;29;20041;-69
2023/09/09 11:25:30;;;;;;;11.65;5.90;;;29.40;95.60;;;;;;4871089;29;20052;-69
2023/09/09 11:28:04;;;;;;;15.82;6.00;;;30.20;93.80;;;;;;4880217;29;20037;-69
2023/09/09 11:30:41;;;;;;;11.75;5.88;;;30.20;94.70;;;;;;4879697;29;20356;-69
2023/09/09 11:33:07;;;;;;;11.73;5.93;;;30.60;93.60;;;;;;4863082;29;20115;-69
2023/09/09 11:35:47;;;;;;;8.60;4.53;;;30.60;91.90;;;;;;4880097;29;20117;-69
2023/09/09 11:38:14;;;;;;;10.77;4.82;;;30.10;91.30;;;;;;4878720;29;20036;-69
2023/09/09 11:40:48;;;;;;;7.10;4.03;;;29.90;92.10;;;;;;4880196;29;20109;-70
2023/09/09 11:43:20;;;;;;;11.43;4.82;;;30.70;91.20;;;;;;4879670;29;20423;-69
2023/09/09 11:46:06;;;;;;;6.82;3.60;;;31.10;89.40;;;;;;4879782;29;20718;-69
2023/09/09 11:48:32;;;;;;;6.88;3.85;;;31.20;88.60;;;;;;4864788;29;20025;-69
2023/09/09 11:51:07;;;;;;;6.43;3.33;;;31.40;89.30;;;;;;4862998;29;20049;-69
2023/09/09 11:53:33;;;;;;;7.22;4.35;;;31.90;86.10;;;;;;4886822;29;20115;-69
2023/09/09 11:56:08;;;;;;;8.60;4.57;;;32.50;84.70;;;;;;4879929;29;20076;-69
2023/09/09 11:59:23;;;;;;;5.47;2.47;;;32.40;79.80;;;;;;4847360;29;20457;-69
2023/09/09 12:01:51;;;;;;;6.93;3.50;;;32.90;79.50;;;;;;4865777;29;20648;-70
2023/09/09 12:04:16;;;;;;;5.53;2.50;;;33.50;76.30;;;;;;4879459;29;20044;-70
2023/09/09 12:09:46;;;;;;;5.18;2.83;;;32.50;75.90;;;;;;4858391;29;20189;-69
2023/09/09 12:12:17;;;;;;;7.18;3.13;;;33.80;75.40;;;;;;4862613;29;20032;-69
2023/09/09 12:14:50;;;;;;;11.18;4.10;;;32.60;75.70;;;;;;4862671;29;20033;-69
2023/09/09 12:17:19;;;;;;;6.47;3.53;;;33.00;75.60;;;;;;4862239;29;20428;-69
2023/09/09 12:20:11;;;;;;;5.55;3.25;;;32.60;75.40;;;;;;4862142;29;20036;-69
2023/09/09 12:22:48;;;;;;;5.38;3.22;;;33.00;75.10;;;;;;4863656;29;20572;-69
2023/09/09 12:29:56;;;;;;;6.90;3.30;;;33.40;72.40;;;;;;4878724;29;20108;-69
2023/09/09 12:32:34;;;;;;;4.88;2.40;;;35.60;68.00;;;;;;4878963;29;20045;-69
2023/09/09 12:35:09;;;;;;;6.13;3.15;;;35.50;70.60;;;;;;4862216;29;20037;-69
2023/09/09 12:37:41;;;;;;;5.70;2.50;;;35.40;68.80;;;;;;4862089;29;20093;-69
2023/09/09 12:40:11;;;;;;;3.05;2.17;;;36.90;61.60;;;;;;4846466;29;20078;-69
2023/09/09 12:42:42;;;;;;;9.32;2.05;;;37.30;58.10;;;;;;4878869;29;20064;-69
2023/09/09 12:45:10;;;;;;;4.07;2.10;;;38.10;55.50;;;;;;4878604;29;20037;-69
2023/09/09 12:51:35;;;;;;;2.45;1.60;;;37.50;55.20;;;;;;4877164;29;20060;-69
2023/09/09 12:54:01;;;;;;;2.42;1.70;;;40.00;51.30;;;;;;4878474;29;20048;-69
2023/09/09 12:56:27;;;;;;;5.43;2.40;;;37.50;51.10;;;;;;4867895;29;20032;-69
2023/09/09 12:58:53;;;;;;;2.90;1.88;;;38.50;50.50;;;;;;4861808;29;20072;-69
2023/09/09 13:01:25;;;;;;;5.93;1.83;;;37.60;51.10;;;;;;4878087;29;20490;-69
2023/09/09 13:03:50;;;;;;;5.40;2.80;;;38.00;49.70;;;;;;4878495;29;20037;-69
2023/09/09 13:06:28;;;;;;;2.55;1.50;;;35.70;50.50;;;;;;4861593;29;20033;-69
2023/09/09 13:09:29;;;;;;;2.40;1.60;;;36.30;52.00;;;;;;4878182;29;20622;-69
2023/09/09 13:11:55;;;;;;;7.00;1.80;;;36.60;50.50;;;;;;4802149;29;20047;-69
2023/09/09 13:14:20;;;;;;;5.32;1.80;;;36.70;50.90;;;;;;4787210;29;20512;-69
2023/09/09 13:16:55;;;;;;;3.40;1.70;;;36.50;50.20;;;;;;4792540;29;20460;-69
2023/09/09 13:19:26;;;;;;;2.65;1.55;;;36.50;52.00;;;;;;4803821;29;20038;-69
2023/09/09 13:22:01;;;;;;;2.53;1.48;;;37.30;52.80;;;;;;4802187;29;20101;-69
2023/09/09 13:24:29;;;;;;;3.10;1.73;;;39.00;49.40;;;;;;4802136;29;20046;-69
2023/09/09 13:27:27;;;;;;;6.37;1.83;;;36.20;53.10;;;;;;4802278;29;20103;-69
2023/09/09 13:29:53;;;;;;;3.75;2.15;;;36.90;51.80;;;;;;4801642;29;20039;-69
2023/09/09 13:32:34;;;;;;;4.13;1.88;;;36.30;52.80;;;;;;4802096;29;20455;-69
2023/09/09 13:36:16;;;;;;;1.67;1.20;;;38.00;50.60;;;;;;4808372;29;20046;-69
2023/09/09 13:39:13;;;;;;;3.22;1.30;;;38.30;48.80;;;;;;4733142;30;20047;-69
2023/09/09 13:41:39;;;;;;;3.58;1.60;;;38.60;46.90;;;;;;4793267;29;20140;-69
2023/09/09 13:44:05;;;;;;;3.58;1.50;;;36.90;48.20;;;;;;4801999;29;20043;-69
2023/09/09 13:46:57;;;;;;;3.85;2.17;;;37.30;48.60;;;;;;4809487;29;20435;-69
2023/09/09 13:49:35;;;;;;;3.47;1.38;;;38.60;46.20;;;;;;4801722;29;20111;-69
2023/09/09 13:52:05;;;;;;;2.30;1.50;;;38.10;46.50;;;;;;4801800;29;20068;-68
2023/09/09 13:54:34;;;;;;;2.15;1.10;;;37.10;47.50;;;;;;4801772;29;20544;-69
2023/09/09 13:57:03;;;;;;;3.08;1.65;;;38.70;46.10;;;;;;4772394;29;20047;-69